Time;durP1;ratioP1;P1;durP2;ratioP2;P2;SDS_P1;SDS_P2;PMS_P1;PMS_P2;Temp;Humidity;BMP_temperature;BMP_pressure;BME280_temperature;BME280_humidity;BME280_pressure;Samples;Min_cycle;Max_cycle;Signal;HPM_P1;HPM_P2
2022/06/21 00:01:13;;;;;;;10.23;3.83;;;10.80;99.90;;;;;;4938615;28;93117;-35
2022/06/21 00:03:39;;;;;;;7.13;3.78;;;10.80;99.90;;;;;;4937417;28;92554;-35
2022/06/21 00:06:06;;;;;;;6.97;3.15;;;10.80;99.90;;;;;;4939123;28;93840;-33
2022/06/21 00:08:36;;;;;;;3.92;3.35;;;10.80;99.90;;;;;;4938527;28;94492;-34
2022/06/21 00:11:13;;;;;;;9.55;3.60;;;10.80;99.90;;;;;;4938854;28;93441;-35
2022/06/21 00:13:39;;;;;;;7.88;3.67;;;10.80;99.90;;;;;;4938778;28;94439;-33
2022/06/21 00:16:09;;;;;;;5.28;3.20;;;10.80;99.90;;;;;;4938005;28;94821;-38
2022/06/21 00:18:38;;;;;;;6.00;3.10;;;10.70;99.90;;;;;;4937335;28;94929;-36
2022/06/21 00:21:09;;;;;;;3.63;2.75;;;10.70;99.90;;;;;;4939137;28;93295;-34
2022/06/21 00:23:34;;;;;;;5.70;3.55;;;10.70;99.90;;;;;;4937890;28;93844;-39
2022/06/21 00:26:00;;;;;;;5.25;3.15;;;10.70;99.90;;;;;;4938134;28;95676;-33
2022/06/21 00:28:26;;;;;;;4.18;2.95;;;10.60;99.90;;;;;;4937904;28;94471;-33
2022/06/21 00:30:54;;;;;;;9.43;3.17;;;10.60;99.90;;;;;;4920808;28;94509;-36
2022/06/21 00:33:22;;;;;;;8.10;3.22;;;10.60;99.90;;;;;;4921297;28;94631;-35
2022/06/21 00:35:50;;;;;;;5.35;3.20;;;10.50;99.90;;;;;;4937604;28;95005;-33
2022/06/21 00:38:23;;;;;;;11.73;4.00;;;10.50;99.90;;;;;;4938056;28;94396;-36
2022/06/21 00:40:48;;;;;;;9.57;3.63;;;10.60;99.90;;;;;;4938220;28;92204;-34
2022/06/21 00:43:21;;;;;;;9.55;3.65;;;10.50;99.90;;;;;;4938280;28;93127;-33
2022/06/21 00:45:50;;;;;;;10.10;3.03;;;10.50;99.90;;;;;;4937523;28;94919;-33
2022/06/21 00:48:26;;;;;;;6.93;3.35;;;10.50;99.90;;;;;;4937794;28;96115;-35
2022/06/21 00:50:56;;;;;;;4.07;3.67;;;10.50;99.90;;;;;;4937921;28;94260;-33
2022/06/21 00:53:33;;;;;;;4.28;3.17;;;10.50;99.90;;;;;;4937708;28;94514;-33
2022/06/21 00:56:01;;;;;;;7.35;2.85;;;10.40;99.90;;;;;;4937355;28;94962;-35
2022/06/21 00:58:30;;;;;;;6.28;3.53;;;10.40;99.90;;;;;;4937876;28;94375;-33
2022/06/21 01:01:03;;;;;;;7.00;3.42;;;10.40;99.90;;;;;;4938118;28;94183;-36
2022/06/21 01:03:40;;;;;;;8.05;3.13;;;10.40;99.90;;;;;;4985749;22;94782;-39
2022/06/21 01:06:12;;;;;;;6.60;3.15;;;10.40;99.90;;;;;;4937506;28;93583;-37
2022/06/21 01:08:42;;;;;;;8.48;3.55;;;10.30;99.90;;;;;;4937369;28;94530;-35
2022/06/21 01:11:14;;;;;;;7.22;4.22;;;10.30;99.90;;;;;;4938162;28;93425;-36
2022/06/21 01:13:44;;;;;;;15.10;4.15;;;10.30;99.90;;;;;;4937949;28;94907;-35
2022/06/21 01:16:11;;;;;;;5.68;3.40;;;10.30;99.90;;;;;;4936937;28;95539;-35
2022/06/21 01:18:38;;;;;;;5.43;3.50;;;10.30;99.90;;;;;;4936437;28;96219;-34
2022/06/21 01:21:04;;;;;;;6.00;3.73;;;10.30;99.90;;;;;;4937633;28;94703;-36
2022/06/21 01:23:52;;;;;;;7.80;3.28;;;10.30;99.90;;;;;;4937872;28;93012;-32
2022/06/21 01:26:33;;;;;;;6.00;3.40;;;10.30;99.90;;;;;;4937552;28;93197;-33
2022/06/21 01:29:01;;;;;;;10.85;3.22;;;10.20;99.90;;;;;;4936262;28;94557;-36
2022/06/21 01:31:29;;;;;;;8.77;4.22;;;10.20;99.90;;;;;;4937424;28;94642;-34
2022/06/21 01:33:54;;;;;;;6.13;3.08;;;10.20;99.90;;;;;;4920221;28;93503;-34
2022/06/21 01:36:32;;;;;;;6.32;3.95;;;10.20;99.90;;;;;;4937125;28;94510;-39
2022/06/21 01:39:07;;;;;;;6.97;3.63;;;10.20;99.90;;;;;;4920091;28;95259;-34
2022/06/21 01:42:01;;;;;;;3.95;3.53;;;10.10;99.90;;;;;;4936569;28;95169;-36
2022/06/21 01:44:37;;;;;;;6.60;3.58;;;10.10;99.90;;;;;;4937353;28;93138;-35
2022/06/21 01:47:08;;;;;;;15.18;4.60;;;10.10;99.90;;;;;;4937334;28;93521;-33
2022/06/21 01:49:36;;;;;;;10.32;4.50;;;10.10;99.90;;;;;;4937674;28;94805;-35
2022/06/21 01:52:09;;;;;;;7.50;4.03;;;10.10;99.90;;;;;;4938182;28;93373;-34
2022/06/21 01:54:39;;;;;;;6.68;4.00;;;10.10;99.90;;;;;;4936714;28;93921;-36
2022/06/21 01:57:09;;;;;;;6.00;4.10;;;10.10;99.90;;;;;;4937198;28;96437;-34
2022/06/21 01:59:44;;;;;;;4.43;3.47;;;10.10;99.90;;;;;;4936735;28;94124;-33
2022/06/21 02:02:15;;;;;;;6.15;3.72;;;10.10;99.90;;;;;;4937721;28;94591;-36
2022/06/21 02:04:45;;;;;;;7.25;4.07;;;10.10;99.90;;;;;;4936718;28;93599;-36
2022/06/21 02:07:18;;;;;;;4.47;3.60;;;10.00;99.90;;;;;;4936525;28;95590;-35
2022/06/21 02:10:12;;;;;;;10.38;4.90;;;10.00;99.90;;;;;;4936248;28;95415;-33
2022/06/21 02:12:44;;;;;;;9.52;4.38;;;10.00;99.90;;;;;;4910384;28;92586;-34
2022/06/21 02:15:38;;;;;;;6.45;3.90;;;10.00;99.90;;;;;;4936560;28;94664;-37
2022/06/21 02:18:08;;;;;;;5.82;4.32;;;10.00;99.90;;;;;;4937125;28;94630;-35
2022/06/21 02:20:40;;;;;;;4.90;4.03;;;10.00;99.90;;;;;;4936688;28;93859;-33
2022/06/21 02:23:06;;;;;;;3.83;3.40;;;9.90;99.90;;;;;;4936162;28;92949;-33
2022/06/21 02:25:34;;;;;;;6.88;5.05;;;9.90;99.90;;;;;;4937264;28;93544;-34
2022/06/21 02:28:08;;;;;;;6.65;4.90;;;9.80;99.90;;;;;;4968175;28;95485;-36
2022/06/21 02:30:38;;;;;;;4.38;3.92;;;9.80;99.90;;;;;;4936460;28;94567;-38
2022/06/21 02:33:06;;;;;;;10.90;3.60;;;9.80;99.90;;;;;;4936647;28;93791;-33
2022/06/21 02:35:35;;;;;;;;;;;9.70;99.90;;;;;;4937779;28;92103;-34
2022/06/21 02:38:12;;;;;;;6.45;4.20;;;9.70;99.90;;;;;;4938210;28;94839;-34
2022/06/21 02:40:44;;;;;;;8.30;4.05;;;9.60;99.90;;;;;;4936696;28;94697;-32
2022/06/21 02:43:26;;;;;;;7.60;3.63;;;9.60;99.90;;;;;;4940555;28;92310;-36
2022/06/21 02:45:56;;;;;;;13.88;4.25;;;9.60;99.90;;;;;;4939568;28;93524;-33
2022/06/21 02:48:28;;;;;;;5.10;3.65;;;9.60;99.90;;;;;;4939497;28;94602;-34
2022/06/21 02:51:08;;;;;;;4.35;3.83;;;9.50;99.90;;;;;;4939944;28;95857;-35
2022/06/21 02:53:42;;;;;;;5.13;3.97;;;9.50;99.90;;;;;;4940303;28;94883;-34
2022/06/21 02:56:29;;;;;;;5.25;3.42;;;9.50;99.90;;;;;;4939224;28;93400;-37
2022/06/21 02:58:59;;;;;;;7.00;4.72;;;9.50;99.90;;;;;;4938866;28;95666;-36
2022/06/21 03:01:33;;;;;;;8.30;3.88;;;9.50;99.90;;;;;;4939986;28;95626;-34
2022/06/21 03:03:59;;;;;;;6.40;4.10;;;9.50;99.90;;;;;;4939458;28;93503;-36
2022/06/21 03:06:27;;;;;;;5.38;3.80;;;9.50;99.90;;;;;;4940854;28;93824;-39
2022/06/21 03:09:07;;;;;;;8.88;4.20;;;9.50;99.90;;;;;;4939278;28;94976;-34
2022/06/21 03:11:42;;;;;;;11.98;4.97;;;9.50;99.90;;;;;;4939756;28;94512;-36
2022/06/21 03:14:18;;;;;;;9.00;4.60;;;9.50;99.90;;;;;;4939888;28;93431;-34
2022/06/21 03:16:45;;;;;;;11.00;4.93;;;9.50;99.90;;;;;;4939272;28;91940;-34
2022/06/21 03:19:45;;;;;;;8.32;4.43;;;9.50;99.90;;;;;;4939191;28;94919;-35
2022/06/21 03:22:34;;;;;;;8.48;4.32;;;9.40;99.90;;;;;;4936767;28;94609;-34
2022/06/21 03:25:05;;;;;;;5.55;4.40;;;9.40;99.90;;;;;;4938953;28;94060;-34
2022/06/21 03:27:53;;;;;;;5.55;4.03;;;9.40;99.90;;;;;;4939163;28;93498;-36
2022/06/21 03:30:22;;;;;;;11.50;5.68;;;9.40;99.90;;;;;;4938872;28;94694;-37
2022/06/21 03:32:49;;;;;;;7.80;4.90;;;9.40;99.90;;;;;;4938383;28;94962;-32
2022/06/21 03:35:15;;;;;;;8.77;4.80;;;9.40;99.90;;;;;;4939386;28;94479;-37
2022/06/21 03:37:43;;;;;;;6.38;3.90;;;9.40;99.90;;;;;;4939342;28;94654;-34
2022/06/21 03:43:08;;;;;;;6.82;4.95;;;9.40;99.90;;;;;;4939009;28;95711;-34
2022/06/21 03:45:37;;;;;;;7.82;5.03;;;9.40;99.90;;;;;;4938754;28;93281;-32
2022/06/21 03:48:17;;;;;;;11.98;6.32;;;9.40;99.90;;;;;;4938989;28;93962;-38
2022/06/21 03:50:53;;;;;;;6.78;4.80;;;9.50;99.90;;;;;;4938186;28;95239;-34
2022/06/21 03:53:28;;;;;;;9.35;5.00;;;9.50;99.90;;;;;;4969399;28;95365;-33
2022/06/21 03:56:03;;;;;;;8.48;5.60;;;9.60;99.90;;;;;;4938734;28;93883;-33
2022/06/21 03:58:50;;;;;;;6.78;5.60;;;9.60;99.90;;;;;;4938496;28;92256;-34
2022/06/21 04:01:25;;;;;;;11.00;5.88;;;9.70;99.90;;;;;;4938792;28;94816;-35
2022/06/21 04:03:59;;;;;;;8.95;6.47;;;9.70;99.90;;;;;;4938040;28;94576;-36
2022/06/21 04:06:52;;;;;;;6.47;4.85;;;9.80;99.90;;;;;;4939229;28;93776;-40
2022/06/21 04:09:42;;;;;;;6.90;4.35;;;9.80;99.90;;;;;;4939375;28;93325;-35
2022/06/21 04:12:18;;;;;;;9.77;6.18;;;9.90;99.90;;;;;;4938317;28;94359;-36
2022/06/21 04:14:53;;;;;;;9.23;5.10;;;9.90;99.90;;;;;;4938573;28;94131;-34
2022/06/21 04:17:30;;;;;;;8.95;5.63;;;10.00;99.90;;;;;;4938803;28;93825;-34
2022/06/21 04:19:58;;;;;;;8.68;5.30;;;10.10;99.90;;;;;;4938736;28;95161;-32
2022/06/21 04:22:27;;;;;;;8.52;6.20;;;10.10;99.90;;;;;;4938285;28;94756;-34
2022/06/21 04:25:19;;;;;;;8.05;5.18;;;10.20;99.90;;;;;;4938043;28;93587;-33
2022/06/21 04:27:59;;;;;;;10.68;5.78;;;10.30;99.90;;;;;;4938242;28;92872;-38
2022/06/21 04:30:32;;;;;;;9.63;4.57;;;10.40;99.90;;;;;;4938343;28;93182;-35
2022/06/21 04:33:08;;;;;;;10.73;6.05;;;10.60;99.90;;;;;;4937485;28;95315;-35
2022/06/21 04:35:48;;;;;;;10.23;5.38;;;10.80;99.90;;;;;;4938554;28;94641;-33
2022/06/21 04:38:23;;;;;;;6.50;5.78;;;11.00;99.90;;;;;;4937805;28;93862;-35
2022/06/21 04:41:01;;;;;;;12.02;5.85;;;11.30;99.90;;;;;;4938606;28;92490;-36
2022/06/21 04:43:43;;;;;;;5.05;4.60;;;11.60;99.90;;;;;;4937567;28;95624;-34
2022/06/21 04:46:39;;;;;;;8.93;5.82;;;11.90;99.90;;;;;;4938071;28;95341;-39
2022/06/21 04:49:15;;;;;;;8.05;5.05;;;12.10;99.90;;;;;;4938654;28;92291;-37
2022/06/21 04:51:47;;;;;;;11.05;5.72;;;12.40;99.90;;;;;;4937314;28;92232;-37
2022/06/21 04:54:24;;;;;;;19.63;5.93;;;12.60;99.90;;;;;;4938071;28;94932;-35
2022/06/21 04:57:21;;;;;;;10.67;5.37;;;12.80;99.90;;;;;;4937281;28;94723;-33
2022/06/21 04:59:50;;;;;;;9.45;4.97;;;12.90;99.90;;;;;;4937900;28;94539;-34
2022/06/21 05:02:24;;;;;;;5.38;4.90;;;13.00;99.90;;;;;;4938906;28;93546;-36
2022/06/21 05:05:00;;;;;;;6.72;4.97;;;13.20;99.90;;;;;;4937070;28;95088;-34
2022/06/21 05:07:29;;;;;;;7.22;4.97;;;13.20;99.90;;;;;;4937640;28;95041;-35
2022/06/21 05:09:56;;;;;;;9.43;5.05;;;13.20;99.90;;;;;;4936918;28;95345;-36
2022/06/21 05:12:36;;;;;;;4.35;3.70;;;13.00;99.90;;;;;;4937389;28;92161;-33
2022/06/21 05:15:16;;;;;;;6.68;4.88;;;12.90;99.90;;;;;;4938033;28;94800;-35
2022/06/21 05:17:57;;;;;;;5.85;5.35;;;12.80;99.90;;;;;;4937162;28;95152;-33
2022/06/21 05:20:31;;;;;;;12.55;5.90;;;12.90;99.90;;;;;;4937918;28;93188;-33
2022/06/21 05:23:01;;;;;;;7.47;5.15;;;12.80;99.90;;;;;;4937411;28;94452;-38
2022/06/21 05:25:33;;;;;;;5.45;4.10;;;12.80;99.90;;;;;;4937249;28;94769;-37
2022/06/21 05:28:11;;;;;;;8.60;4.78;;;12.80;99.90;;;;;;4937291;28;94859;-35
2022/06/21 05:31:03;;;;;;;8.00;4.63;;;12.80;99.90;;;;;;4936968;28;94222;-35
2022/06/21 05:33:41;;;;;;;8.00;4.90;;;12.80;99.90;;;;;;4969592;28;94505;-33
2022/06/21 05:36:11;;;;;;;8.73;4.70;;;12.90;99.90;;;;;;4936945;28;95758;-35
2022/06/21 05:38:51;;;;;;;11.90;4.97;;;12.90;99.90;;;;;;4937610;28;95244;-35
2022/06/21 05:41:30;;;;;;;5.93;4.93;;;12.90;99.90;;;;;;4937815;28;93396;-36
2022/06/21 05:44:01;;;;;;;12.30;4.57;;;12.90;99.90;;;;;;4937024;28;92289;-34
2022/06/21 05:46:31;;;;;;;7.18;4.95;;;13.00;99.90;;;;;;4937303;28;95582;-33
2022/06/21 05:48:58;;;;;;;6.03;5.18;;;13.10;99.90;;;;;;4937231;28;94273;-34
2022/06/21 05:51:31;;;;;;;4.95;4.45;;;13.20;99.90;;;;;;4938152;28;93088;-34
2022/06/21 05:54:09;;;;;;;7.63;4.80;;;13.20;99.90;;;;;;4937159;28;92514;-36
2022/06/21 05:56:37;;;;;;;7.00;5.97;;;13.30;99.90;;;;;;4936966;28;94638;-34
2022/06/21 05:59:09;;;;;;;6.13;4.72;;;13.40;99.90;;;;;;4937216;28;94212;-32
2022/06/21 06:01:42;;;;;;;13.32;5.45;;;13.40;99.90;;;;;;4936739;28;93605;-40
2022/06/21 06:04:28;;;;;;;6.63;5.50;;;13.40;99.90;;;;;;4935229;28;94373;-34
2022/06/21 06:06:57;;;;;;;14.07;5.18;;;13.50;99.90;;;;;;4935800;28;94762;-38
2022/06/21 06:09:34;;;;;;;6.85;5.32;;;13.50;99.90;;;;;;4936604;28;94362;-37
2022/06/21 06:12:19;;;;;;;8.02;5.13;;;13.50;99.90;;;;;;4937584;28;92138;-35
2022/06/21 06:14:54;;;;;;;7.63;5.32;;;13.60;99.90;;;;;;4936565;28;93580;-37
2022/06/21 06:17:37;;;;;;;13.27;6.45;;;13.60;99.90;;;;;;4939516;28;94222;-35
2022/06/21 06:20:29;;;;;;;9.10;5.55;;;13.70;99.90;;;;;;4940331;28;94452;-34
2022/06/21 06:23:36;;;;;;;7.00;5.25;;;13.80;99.90;;;;;;4936922;28;93797;-35
2022/06/21 06:26:12;;;;;;;8.57;5.00;;;13.90;99.90;;;;;;4879320;28;93075;-35
2022/06/21 06:28:47;;;;;;;6.22;4.85;;;14.20;99.90;;;;;;4931073;28;95739;-33
2022/06/21 06:31:23;;;;;;;7.47;3.88;;;14.70;99.90;;;;;;4939670;28;95026;-39
2022/06/21 06:34:00;;;;;;;5.18;4.22;;;15.40;99.90;;;;;;4940444;28;93968;-34
2022/06/21 06:36:31;;;;;;;4.73;4.17;;;15.80;99.90;;;;;;4940317;28;93879;-33
2022/06/21 06:38:58;;;;;;;10.25;3.67;;;16.30;99.90;;;;;;4940274;28;94884;-36
2022/06/21 06:41:45;;;;;;;5.75;3.38;;;16.70;99.90;;;;;;4939560;28;96253;-35
2022/06/21 06:44:14;;;;;;;6.20;3.30;;;16.80;99.90;;;;;;4940253;28;92920;-34
2022/06/21 06:46:44;;;;;;;6.47;2.90;;;17.10;99.90;;;;;;4939570;28;93643;-33
2022/06/21 06:49:42;;;;;;;3.88;3.45;;;17.60;99.90;;;;;;4939443;28;95185;-35
2022/06/21 06:52:15;;;;;;;;;;;18.00;99.90;;;;;;4939089;28;94288;-36
2022/06/21 06:54:56;;;;;;;3.40;2.83;;;18.10;99.90;;;;;;4940795;28;96093;-35
2022/06/21 06:57:42;;;;;;;3.55;3.13;;;17.50;99.90;;;;;;4938679;28;93745;-33
2022/06/21 07:00:20;;;;;;;3.47;2.63;;;17.50;99.90;;;;;;4939534;28;95176;-33
2022/06/21 07:02:57;;;;;;;9.13;3.63;;;17.50;99.90;;;;;;4939929;28;94175;-34
2022/06/21 07:05:40;;;;;;;4.22;3.63;;;17.60;99.90;;;;;;4940361;28;92928;-34
2022/06/21 07:08:43;;;;;;;9.10;3.08;;;18.00;99.90;;;;;;4939672;28;93367;-37
2022/06/21 07:11:23;;;;;;;5.40;3.05;;;18.40;99.90;;;;;;4939329;28;95588;-33
2022/06/21 07:13:50;;;;;;;5.57;3.03;;;18.40;99.90;;;;;;4939893;28;94425;-33
2022/06/21 07:16:20;;;;;;;4.45;2.88;;;18.40;99.90;;;;;;4939835;28;93839;-33
2022/06/21 07:18:50;;;;;;;6.20;2.53;;;18.70;99.90;;;;;;4939300;28;92799;-34
2022/06/21 07:21:16;;;;;;;6.13;3.22;;;18.80;99.90;;;;;;4938142;28;95836;-34
2022/06/21 07:23:44;;;;;;;3.75;2.50;;;18.90;99.90;;;;;;4938821;28;94065;-38
2022/06/21 07:26:26;;;;;;;7.00;2.00;;;18.90;99.90;;;;;;4939703;28;94498;-34
2022/06/21 07:29:01;;;;;;;4.78;3.13;;;19.30;99.90;;;;;;4939819;28;94519;-34
2022/06/21 07:31:35;;;;;;;5.45;2.97;;;19.60;99.90;;;;;;4939234;28;94673;-36
2022/06/21 07:34:12;;;;;;;4.45;2.25;;;19.70;99.90;;;;;;4939084;28;94952;-36
2022/06/21 07:36:57;;;;;;;8.53;2.77;;;20.10;99.90;;;;;;4939162;28;92334;-34
2022/06/21 07:39:33;;;;;;;7.35;2.22;;;20.00;99.90;;;;;;4939401;28;93469;-36
2022/06/21 07:42:02;;;;;;;3.83;1.83;;;20.40;99.90;;;;;;4938676;28;95552;-34
2022/06/21 07:44:34;;;;;;;2.72;2.45;;;20.60;99.90;;;;;;4938441;28;94484;-37
2022/06/21 07:47:06;;;;;;;3.95;2.40;;;20.50;99.90;;;;;;4938670;28;95054;-37
2022/06/21 07:49:41;;;;;;;6.15;2.85;;;19.90;99.90;;;;;;4939632;28;93688;-36
2022/06/21 07:52:18;;;;;;;3.20;2.95;;;19.10;99.90;;;;;;4938576;28;94550;-36
2022/06/21 07:54:53;;;;;;;5.45;2.67;;;19.00;99.90;;;;;;4938623;28;94430;-38
2022/06/21 07:57:24;;;;;;;4.65;2.70;;;19.50;99.90;;;;;;4939261;28;93428;-36
2022/06/21 07:59:59;;;;;;;2.78;2.58;;;19.20;99.90;;;;;;4938338;28;94369;-34
2022/06/21 08:08:03;;;;;;;5.05;2.20;;;20.10;99.90;;;;;;4937179;28;93242;-36
2022/06/21 08:10:40;;;;;;;6.15;2.83;;;20.50;99.90;;;;;;4937020;28;93463;-38
2022/06/21 08:13:06;;;;;;;7.13;2.73;;;20.60;99.90;;;;;;4935183;28;95537;-35
2022/06/21 08:15:39;;;;;;;3.53;2.42;;;20.80;99.90;;;;;;4936907;28;95742;-34
2022/06/21 08:18:09;;;;;;;3.88;3.05;;;20.70;99.90;;;;;;4936936;28;93159;-36
2022/06/21 08:20:58;;;;;;;3.72;2.42;;;21.10;99.90;;;;;;4933278;28;94218;-38
2022/06/21 08:23:48;;;;;;;2.75;2.35;;;20.50;99.90;;;;;;4936002;28;94778;-34
2022/06/21 08:26:21;;;;;;;8.65;3.05;;;20.80;99.90;;;;;;4936172;28;94527;-35
2022/06/21 08:29:01;;;;;;;3.55;2.97;;;21.10;99.90;;;;;;4935970;28;92940;-35
2022/06/21 08:31:34;;;;;;;7.70;3.08;;;21.20;99.90;;;;;;4936966;28;93382;-35
2022/06/21 08:34:09;;;;;;;14.73;5.20;;;21.40;99.90;;;;;;4936704;28;94815;-35
2022/06/21 08:36:41;;;;;;;5.60;3.35;;;21.60;99.90;;;;;;4935157;28;95095;-35
2022/06/21 08:39:13;;;;;;;5.38;2.45;;;21.50;99.90;;;;;;4935936;28;94389;-35
2022/06/21 08:41:57;;;;;;;4.25;2.00;;;21.80;99.90;;;;;;4936392;28;94400;-36
2022/06/21 08:48:18;;;;;;;4.70;2.45;;;21.10;99.90;;;;;;4936233;28;94617;-36
2022/06/21 08:50:56;;;;;;;2.28;1.83;;;21.40;98.90;;;;;;4936266;28;94963;-34
2022/06/21 08:53:32;;;;;;;2.88;1.77;;;21.50;99.90;;;;;;4935950;28;93072;-34
2022/06/21 08:56:08;;;;;;;4.88;2.03;;;21.70;99.90;;;;;;4935263;28;95123;-35
2022/06/21 08:59:11;;;;;;;3.22;1.83;;;21.90;82.40;;;;;;4935569;28;94646;-35
2022/06/21 09:01:55;;;;;;;5.68;2.55;;;21.50;99.20;;;;;;4934503;28;94741;-36
2022/06/21 09:04:59;;;;;;;2.05;1.85;;;21.20;98.60;;;;;;4934674;28;93190;-34
2022/06/21 09:08:01;;;;;;;2.58;2.08;;;21.10;99.90;;;;;;4871430;28;95788;-38
2022/06/21 09:10:53;;;;;;;2.35;1.90;;;21.20;99.90;;;;;;4875216;28;95361;-35
2022/06/21 09:13:47;;;;;;;3.22;2.28;;;21.80;92.80;;;;;;4912383;28;93247;-35
2022/06/21 09:16:22;;;;;;;2.58;2.25;;;21.70;99.90;;;;;;4935491;28;92883;-37
2022/06/21 09:19:04;;;;;;;4.00;1.60;;;21.80;97.10;;;;;;4934620;28;94792;-35
2022/06/21 09:21:40;;;;;;;1.65;1.55;;;21.70;92.90;;;;;;4934425;28;94393;-36
2022/06/21 09:24:20;;;;;;;9.57;2.15;;;21.70;91.20;;;;;;4934491;28;93355;-36
2022/06/21 09:27:04;;;;;;;2.53;1.95;;;21.60;91.40;;;;;;4923473;28;92753;-36
2022/06/21 09:29:33;;;;;;;3.08;2.03;;;21.70;80.30;;;;;;4934601;28;94680;-36
2022/06/21 09:32:18;;;;;;;3.15;1.58;;;22.00;96.70;;;;;;4934517;28;94504;-33
2022/06/21 09:35:00;;;;;;;2.25;2.05;;;22.30;90.60;;;;;;4935125;28;94977;-35
2022/06/21 09:37:58;;;;;;;4.60;2.05;;;21.90;84.60;;;;;;4934096;28;93133;-35
2022/06/21 09:40:31;;;;;;;;;;;21.80;84.30;;;;;;4935078;28;94609;-35
2022/06/21 09:43:34;;;;;;;2.92;1.70;;;22.10;87.60;;;;;;4935134;28;93862;-35
2022/06/21 09:46:15;;;;;;;1.55;1.45;;;22.20;81.00;;;;;;4931972;28;93285;-35
2022/06/21 09:49:03;;;;;;;5.07;2.17;;;22.20;78.30;;;;;;4940602;28;92247;-36
2022/06/21 09:51:35;;;;;;;;;;;22.40;88.20;;;;;;4936800;28;94620;-36
2022/06/21 09:54:31;;;;;;;2.67;1.67;;;22.30;73.80;;;;;;4939901;28;94490;-36
2022/06/21 09:57:16;;;;;;;3.03;1.98;;;22.10;78.50;;;;;;4938224;28;93262;-34
2022/06/21 10:00:09;;;;;;;1.77;1.45;;;22.10;77.50;;;;;;4938617;28;93336;-36
2022/06/21 10:03:10;;;;;;;4.30;2.05;;;22.00;81.50;;;;;;4938076;28;96935;-40
2022/06/21 10:05:38;;;;;;;1.95;1.70;;;21.80;77.50;;;;;;4937447;28;95618;-38
2022/06/21 10:08:16;;;;;;;;;;;21.70;88.20;;;;;;4937257;28;92606;-37
2022/06/21 10:10:50;;;;;;;;;;;22.00;81.10;;;;;;4938868;28;93647;-34
2022/06/21 10:13:28;;;;;;;2.45;1.73;;;21.70;78.20;;;;;;4937743;28;93823;-36
2022/06/21 10:16:13;;;;;;;3.80;1.73;;;21.60;80.40;;;;;;4937623;28;94248;-35
2022/06/21 10:19:02;;;;;;;2.55;2.10;;;21.70;94.00;;;;;;4938773;28;94185;-33
2022/06/21 10:21:59;;;;;;;11.07;2.05;;;22.00;81.80;;;;;;4938138;28;91861;-35
2022/06/21 10:25:08;;;;;;;1.63;1.52;;;22.20;90.00;;;;;;4938129;28;94876;-37
2022/06/21 10:27:47;;;;;;;2.90;2.15;;;22.10;88.10;;;;;;4937920;28;94440;-36
2022/06/21 10:30:35;;;;;;;2.85;1.40;;;22.30;83.30;;;;;;4938312;28;95049;-37
2022/06/21 10:33:30;;;;;;;1.85;1.75;;;22.50;69.00;;;;;;4937563;28;94897;-39
2022/06/21 10:36:08;;;;;;;4.80;1.85;;;22.20;75.90;;;;;;4936747;28;94973;-35
2022/06/21 10:39:03;;;;;;;3.35;1.83;;;22.20;75.80;;;;;;4935895;28;94390;-37
2022/06/21 10:45:19;;;;;;;4.35;1.88;;;22.30;75.00;;;;;;4937067;28;94680;-35
2022/06/21 10:47:54;;;;;;;1.60;1.48;;;22.10;81.00;;;;;;4937650;28;95939;-37
2022/06/21 10:50:23;;;;;;;2.35;1.60;;;22.20;83.80;;;;;;4938014;28;93572;-36
2022/06/21 10:53:19;;;;;;;3.15;2.00;;;22.60;77.00;;;;;;4936789;28;93516;-38
2022/06/21 10:58:42;;;;;;;;;;;22.60;83.10;;;;;;4937221;28;95909;-34
2022/06/21 11:01:29;;;;;;;3.95;2.55;;;22.50;82.60;;;;;;4938043;28;95109;-38
2022/06/21 11:04:01;;;;;;;2.22;1.65;;;21.40;86.80;;;;;;4936896;28;93308;-36
2022/06/21 11:07:02;;;;;;;3.95;1.52;;;21.30;99.90;;;;;;4936817;28;93575;-36
2022/06/21 11:09:40;;;;;;;3.58;1.35;;;21.10;99.90;;;;;;4936688;28;94631;-34
2022/06/21 11:15:34;;;;;;;2.10;1.48;;;20.80;99.90;;;;;;4938517;28;94374;-35
2022/06/21 11:18:18;;;;;;;2.30;1.42;;;20.70;99.90;;;;;;4937188;28;92837;-37
2022/06/21 11:21:16;;;;;;;2.58;1.67;;;20.80;99.90;;;;;;4936694;28;94916;-34
2022/06/21 11:24:06;;;;;;;6.88;2.38;;;20.80;99.90;;;;;;4937310;28;94423;-37
2022/06/21 11:26:44;;;;;;;4.97;2.08;;;21.10;99.90;;;;;;4936735;28;93199;-36
2022/06/21 11:29:31;;;;;;;2.55;2.33;;;21.20;99.90;;;;;;4937041;28;94154;-36
2022/06/21 11:32:05;;;;;;;1.83;1.73;;;21.00;96.50;;;;;;4936226;28;94702;-36
2022/06/21 11:34:59;;;;;;;2.97;2.22;;;20.90;99.90;;;;;;4936807;28;94646;-35
2022/06/21 11:37:45;;;;;;;2.00;1.75;;;20.90;99.90;;;;;;4936219;28;94666;-34
2022/06/21 11:40:22;;;;;;;9.57;1.85;;;21.10;99.90;;;;;;4937261;28;94535;-35
2022/06/21 11:42:51;;;;;;;2.88;2.03;;;21.20;99.90;;;;;;4930523;28;94784;-35
2022/06/21 11:45:45;;;;;;;4.45;2.50;;;21.40;94.30;;;;;;4936149;28;94557;-36
2022/06/21 11:48:48;;;;;;;1.98;1.80;;;20.90;95.00;;;;;;4932820;28;92497;-34
2022/06/21 11:51:51;;;;;;;2.33;1.85;;;20.80;99.90;;;;;;4924099;28;94698;-34
2022/06/21 11:54:25;;;;;;;2.08;1.73;;;21.00;99.90;;;;;;4935221;28;95673;-38
2022/06/21 11:57:13;;;;;;;2.40;2.20;;;21.30;99.90;;;;;;4935886;28;95560;-35
2022/06/21 11:59:48;;;;;;;3.30;2.03;;;21.50;94.10;;;;;;4936306;28;93428;-35
2022/06/21 12:02:21;;;;;;;2.10;1.38;;;21.30;95.20;;;;;;4936797;28;92637;-36
2022/06/21 12:05:21;;;;;;;2.30;2.10;;;21.50;96.40;;;;;;4935983;28;94816;-34
2022/06/21 12:08:00;;;;;;;3.70;2.00;;;21.30;90.20;;;;;;4935075;28;93302;-36
2022/06/21 12:11:01;;;;;;;2.35;1.85;;;21.10;93.60;;;;;;4936895;28;94579;-33
2022/06/21 12:13:32;;;;;;;2.30;1.75;;;20.90;94.70;;;;;;4924537;28;92661;-36
2022/06/21 12:16:30;;;;;;;4.03;2.20;;;20.80;93.70;;;;;;4936174;28;95126;-33
2022/06/21 12:19:27;;;;;;;1.83;1.67;;;20.90;98.90;;;;;;4933889;28;94855;-34
2022/06/21 12:21:58;;;;;;;3.45;2.03;;;21.00;96.10;;;;;;4935103;28;94689;-37
2022/06/21 12:24:26;;;;;;;2.97;1.55;;;21.00;95.70;;;;;;4919025;28;94015;-38
2022/06/21 12:26:53;;;;;;;4.50;2.05;;;20.90;98.60;;;;;;4935331;28;94615;-38
2022/06/21 12:29:20;;;;;;;4.25;2.17;;;20.90;99.90;;;;;;4935378;28;94107;-34
2022/06/21 12:31:53;;;;;;;1.98;1.73;;;21.20;99.90;;;;;;4936611;28;92819;-33
2022/06/21 12:34:28;;;;;;;2.47;1.85;;;21.10;99.60;;;;;;4936261;28;94305;-33
2022/06/21 12:37:02;;;;;;;3.42;1.92;;;21.00;99.50;;;;;;4935043;28;94985;-35
2022/06/21 12:39:59;;;;;;;2.63;1.67;;;20.80;99.90;;;;;;4936541;28;94422;-36
2022/06/21 12:42:28;;;;;;;3.73;1.77;;;20.90;99.90;;;;;;4936107;28;92342;-38
2022/06/21 12:45:09;;;;;;;6.65;1.73;;;20.70;99.50;;;;;;4935586;28;93927;-35
2022/06/21 12:47:47;;;;;;;4.70;2.58;;;20.50;99.90;;;;;;4935044;28;96310;-37
2022/06/21 12:50:28;;;;;;;3.08;1.83;;;20.50;99.90;;;;;;4936179;28;95529;-34
2022/06/21 12:53:13;;;;;;;2.45;1.75;;;20.50;98.30;;;;;;4936277;28;92874;-36
2022/06/21 12:56:11;;;;;;;3.03;1.83;;;20.50;99.90;;;;;;4935176;28;94416;-35
2022/06/21 12:59:15;;;;;;;3.58;2.00;;;20.50;99.90;;;;;;4934394;28;94779;-37
2022/06/21 13:02:00;;;;;;;1.40;1.30;;;20.60;99.90;;;;;;4935038;28;95387;-35
2022/06/21 13:04:43;;;;;;;1.58;1.48;;;20.80;99.90;;;;;;4977415;22;92598;-35
2022/06/21 13:07:39;;;;;;;2.30;2.15;;;21.00;97.50;;;;;;4955079;28;92458;-35
2022/06/21 13:10:38;;;;;;;3.38;1.92;;;20.90;91.70;;;;;;4955226;28;94338;-38
2022/06/21 13:13:08;;;;;;;4.07;2.60;;;20.90;99.40;;;;;;4955014;28;94388;-33
2022/06/21 13:15:51;;;;;;;3.30;1.70;;;21.00;95.80;;;;;;4955100;28;94184;-39
2022/06/21 13:18:39;;;;;;;1.80;1.70;;;21.10;92.60;;;;;;4955013;28;93517;-41
2022/06/21 13:21:20;;;;;;;8.57;2.67;;;21.00;91.70;;;;;;4955128;28;94564;-36
2022/06/21 13:24:13;;;;;;;3.97;1.95;;;21.10;99.90;;;;;;4954668;28;95071;-38
2022/06/21 13:27:00;;;;;;;2.60;1.70;;;21.40;99.60;;;;;;4954205;28;93085;-37
2022/06/21 13:29:57;;;;;;;2.80;1.85;;;21.50;99.10;;;;;;4954323;28;94240;-35
2022/06/21 13:32:41;;;;;;;2.10;1.80;;;21.60;94.40;;;;;;4954801;28;94931;-34
2022/06/21 13:35:32;;;;;;;2.50;1.92;;;21.40;90.10;;;;;;4955533;28;96150;-36
2022/06/21 13:38:03;;;;;;;2.33;1.80;;;21.30;91.80;;;;;;4954607;28;92234;-37
2022/06/21 13:40:44;;;;;;;7.05;1.73;;;21.30;96.80;;;;;;4955439;28;94371;-36
2022/06/21 13:43:28;;;;;;;2.13;1.75;;;21.10;91.30;;;;;;4954120;28;95305;-35
2022/06/21 13:46:10;;;;;;;4.35;1.55;;;21.00;94.00;;;;;;4954225;28;96711;-36
2022/06/21 13:48:57;;;;;;;2.22;1.83;;;20.90;95.40;;;;;;4955045;28;92095;-35
2022/06/21 13:51:30;;;;;;;2.60;2.17;;;21.00;97.20;;;;;;4953492;28;94158;-34
2022/06/21 13:54:20;;;;;;;2.10;1.95;;;21.00;99.90;;;;;;4953193;28;94403;-37
2022/06/21 13:56:52;;;;;;;2.30;2.10;;;21.00;99.90;;;;;;4953998;28;94973;-34
2022/06/21 13:59:28;;;;;;;2.92;1.75;;;21.10;99.90;;;;;;4954414;28;94050;-35
2022/06/21 14:02:09;;;;;;;4.30;2.10;;;21.00;99.90;;;;;;4954794;28;93235;-35
2022/06/21 14:05:00;;;;;;;4.05;2.08;;;21.10;99.20;;;;;;4954091;28;95171;-39
2022/06/21 14:07:38;;;;;;;3.17;1.85;;;21.10;94.70;;;;;;4953478;28;94450;-37
2022/06/21 14:10:09;;;;;;;;;;;21.20;98.00;;;;;;4954590;28;94462;-39